Time;durP1;ratioP1;P1;durP2;ratioP2;P2;SDS_P1;SDS_P2;PMS_P1;PMS_P2;Temp;Humidity;BMP_temperature;BMP_pressure;BME280_temperature;BME280_humidity;BME280_pressure;Samples;Min_cycle;Max_cycle;Signal;HPM_P1;HPM_P2
2022/01/04 00:01:45;;;;;;;8.07;5.93;;;;;;;;;;5093043;28;20032;-74
2022/01/04 00:04:11;;;;;;;7.90;5.88;;;;;;;;;;5111945;28;20027;-74
2022/01/04 00:06:37;;;;;;;8.15;5.70;;;;;;;;;;5111664;28;20028;-74
2022/01/04 00:09:05;;;;;;;8.07;5.72;;;;;;;;;;5112064;28;20123;-74
2022/01/04 00:11:44;;;;;;;8.43;5.68;;;;;;;;;;5111254;28;20442;-74
2022/01/04 00:14:10;;;;;;;7.38;5.00;;;;;;;;;;5093171;28;20027;-74
2022/01/04 00:16:36;;;;;;;8.45;5.50;;;;;;;;;;5093168;28;20012;-74
2022/01/04 00:19:02;;;;;;;8.98;5.25;;;;;;;;;;5111610;28;20091;-74
2022/01/04 00:21:28;;;;;;;7.20;4.68;;;;;;;;;;5111248;28;20028;-74
2022/01/04 00:23:54;;;;;;;6.45;4.80;;;;;;;;;;5111123;28;20031;-74
2022/01/04 00:26:20;;;;;;;8.00;5.05;;;;;;;;;;5111441;28;20398;-74
2022/01/04 00:28:47;;;;;;;8.77;5.35;;;;;;;;;;5115625;28;20407;-74
2022/01/04 00:31:13;;;;;;;7.45;5.20;;;;;;;;;;5114168;28;20020;-74
2022/01/04 00:33:39;;;;;;;9.27;5.68;;;;;;;;;;5115237;28;20020;-74
2022/01/04 00:36:06;;;;;;;7.35;5.20;;;;;;;;;;5115457;28;20019;-74
2022/01/04 00:38:32;;;;;;;7.53;5.53;;;;;;;;;;5115614;28;20102;-74
2022/01/04 00:40:59;;;;;;;7.05;4.75;;;;;;;;;;5115504;28;20068;-74
2022/01/04 00:43:25;;;;;;;7.97;5.57;;;;;;;;;;5097082;28;20062;-74
2022/01/04 00:45:52;;;;;;;8.07;5.38;;;;;;;;;;5115484;28;20030;-74
2022/01/04 00:50:45;;;;;;;7.68;4.68;;;;;;;;;;5115380;28;20034;-74
2022/01/04 00:53:11;;;;;;;7.47;5.07;;;;;;;;;;5115479;28;20027;-74
2022/01/04 00:55:38;;;;;;;7.85;5.30;;;;;;;;;;5124630;27;20023;-74
2022/01/04 00:58:04;;;;;;;7.80;5.28;;;;;;;;;;5135522;27;20019;-74
2022/01/04 01:00:31;;;;;;;8.10;5.15;;;;;;;;;;5136243;27;20051;-74
2022/01/04 01:02:57;;;;;;;6.95;4.82;;;;;;;;;;5135723;27;20102;-74
2022/01/04 01:05:25;;;;;;;7.65;4.68;;;;;;;;;;5135904;27;20031;-74
2022/01/04 01:07:51;;;;;;;6.63;5.15;;;;;;;;;;5135523;27;20019;-74
2022/01/04 01:10:38;;;;;;;7.45;5.18;;;;;;;;;;5135901;27;20034;-74
2022/01/04 01:13:03;;;;;;;7.45;4.68;;;;;;;;;;5135287;27;20031;-74
2022/01/04 01:15:29;;;;;;;6.88;5.20;;;;;;;;;;5116874;27;20102;-74
2022/01/04 01:17:56;;;;;;;6.53;4.75;;;;;;;;;;5096407;28;20120;-74
2022/01/04 01:20:22;;;;;;;6.82;4.80;;;;;;;;;;5115123;28;20077;-74
2022/01/04 01:22:48;;;;;;;10.82;5.70;;;;;;;;;;5114723;28;20119;-74
2022/01/04 01:25:14;;;;;;;7.85;5.20;;;;;;;;;;5114760;28;20161;-74
2022/01/04 01:27:44;;;;;;;8.38;5.78;;;;;;;;;;5121533;27;20030;-74
2022/01/04 01:30:11;;;;;;;8.27;5.15;;;;;;;;;;5135545;27;20047;-74
2022/01/04 01:32:37;;;;;;;6.28;4.50;;;;;;;;;;5135533;27;20111;-74
2022/01/04 01:35:03;;;;;;;6.22;4.40;;;;;;;;;;5134913;27;20092;-74
2022/01/04 01:37:29;;;;;;;8.05;5.35;;;;;;;;;;5116384;27;20057;-74
2022/01/04 01:39:55;;;;;;;7.85;5.22;;;;;;;;;;5135323;27;20504;-74
2022/01/04 01:42:21;;;;;;;6.50;5.03;;;;;;;;;;5117632;27;20034;-74
2022/01/04 01:44:47;;;;;;;7.28;4.75;;;;;;;;;;5114539;28;20486;-74
2022/01/04 01:47:13;;;;;;;7.32;5.25;;;;;;;;;;5114168;28;20036;-74
2022/01/04 01:49:39;;;;;;;8.75;4.93;;;;;;;;;;5114244;28;20059;-74
2022/01/04 01:52:06;;;;;;;8.15;5.32;;;;;;;;;;5113557;28;20180;-74
2022/01/04 01:54:32;;;;;;;7.47;4.65;;;;;;;;;;5114701;28;20410;-74
2022/01/04 01:56:58;;;;;;;6.88;4.82;;;;;;;;;;5114067;28;20099;-74
2022/01/04 01:59:24;;;;;;;7.80;5.07;;;;;;;;;;5117144;27;20108;-74
2022/01/04 02:01:51;;;;;;;7.70;4.90;;;;;;;;;;5134337;27;20099;-76
2022/01/04 02:04:17;;;;;;;6.88;4.70;;;;;;;;;;5134959;27;20119;-76
2022/01/04 02:06:43;;;;;;;7.57;4.90;;;;;;;;;;5116074;27;20027;-76
2022/01/04 02:09:09;;;;;;;7.63;4.53;;;;;;;;;;5134176;27;20080;-76
2022/01/04 02:11:35;;;;;;;9.02;5.45;;;;;;;;;;5133887;27;20031;-76
2022/01/04 02:14:02;;;;;;;6.15;4.75;;;;;;;;;;5128188;27;20092;-76
2022/01/04 02:16:30;;;;;;;8.20;4.35;;;;;;;;;;5113756;28;20019;-76
2022/01/04 02:19:00;;;;;;;9.05;5.22;;;;;;;;;;5113825;28;20435;-76
2022/01/04 02:21:26;;;;;;;7.25;4.55;;;;;;;;;;5113201;28;20051;-76
2022/01/04 02:23:52;;;;;;;7.90;5.18;;;;;;;;;;5113607;28;20039;-76
2022/01/04 02:26:19;;;;;;;7.40;4.45;;;;;;;;;;5095202;28;20570;-76
2022/01/04 02:28:46;;;;;;;7.63;4.75;;;;;;;;;;5094948;28;20039;-76
2022/01/04 02:31:12;;;;;;;8.93;5.13;;;;;;;;;;5094544;28;20027;-76
2022/01/04 02:33:38;;;;;;;6.38;4.93;;;;;;;;;;5074206;28;20077;-76
2022/01/04 02:36:04;;;;;;;7.95;4.40;;;;;;;;;;5095101;28;20028;-76
2022/01/04 02:38:30;;;;;;;7.28;5.10;;;;;;;;;;5110620;28;20422;-76
2022/01/04 02:40:56;;;;;;;7.50;5.00;;;;;;;;;;5097637;28;20022;-76
2022/01/04 02:43:22;;;;;;;7.70;5.18;;;;;;;;;;5106941;28;20034;-76
2022/01/04 02:45:48;;;;;;;7.50;5.13;;;;;;;;;;5092673;28;20540;-76
2022/01/04 02:48:15;;;;;;;6.88;5.20;;;;;;;;;;5092777;28;20028;-76
2022/01/04 02:50:41;;;;;;;6.20;4.80;;;;;;;;;;5103812;28;20058;-76
2022/01/04 02:53:07;;;;;;;9.43;5.63;;;;;;;;;;5078188;28;20107;-76
2022/01/04 02:55:33;;;;;;;8.75;5.53;;;;;;;;;;5092201;28;20016;-76
2022/01/04 02:57:59;;;;;;;8.30;5.50;;;;;;;;;;5092257;28;20073;-76
2022/01/04 03:00:26;;;;;;;8.50;5.32;;;;;;;;;;5092063;28;20016;-76
2022/01/04 03:02:52;;;;;;;7.05;4.80;;;;;;;;;;5092159;28;20078;-76
2022/01/04 03:05:18;;;;;;;6.93;4.85;;;;;;;;;;5091592;28;20028;-76
2022/01/04 03:07:44;;;;;;;6.55;4.90;;;;;;;;;;5091851;28;20035;-76
2022/01/04 03:10:11;;;;;;;7.85;5.18;;;;;;;;;;5091804;28;20376;-76
2022/01/04 03:12:39;;;;;;;8.18;5.50;;;;;;;;;;5091918;28;20483;-76
2022/01/04 03:15:05;;;;;;;8.40;5.28;;;;;;;;;;5092100;28;20115;-76
2022/01/04 03:17:31;;;;;;;7.93;4.97;;;;;;;;;;5073822;28;20028;-76
2022/01/04 03:19:58;;;;;;;7.10;5.35;;;;;;;;;;5091463;28;20395;-76
2022/01/04 03:22:24;;;;;;;7.35;5.10;;;;;;;;;;5091649;28;20036;-76
2022/01/04 03:24:50;;;;;;;7.35;5.22;;;;;;;;;;5092153;28;20030;-76
2022/01/04 03:27:16;;;;;;;8.23;5.05;;;;;;;;;;5092138;28;20043;-76
2022/01/04 03:29:42;;;;;;;8.27;5.03;;;;;;;;;;5107202;28;20044;-76
2022/01/04 03:32:08;;;;;;;6.88;5.28;;;;;;;;;;5111522;28;20502;-76
2022/01/04 03:34:34;;;;;;;6.88;5.50;;;;;;;;;;5112329;28;20027;-76
2022/01/04 03:37:00;;;;;;;7.60;5.00;;;;;;;;;;5111116;28;20035;-76
2022/01/04 03:39:26;;;;;;;9.63;5.72;;;;;;;;;;5112567;28;20008;-76
2022/01/04 03:41:53;;;;;;;7.55;5.38;;;;;;;;;;5111635;28;20035;-76
2022/01/04 03:44:20;;;;;;;6.60;5.47;;;;;;;;;;5112244;28;20023;-75
2022/01/04 03:46:50;;;;;;;6.35;5.25;;;;;;;;;;5112356;28;20102;-76
2022/01/04 03:49:16;;;;;;;8.02;5.60;;;;;;;;;;5111873;28;20095;-76
2022/01/04 03:51:42;;;;;;;7.47;5.30;;;;;;;;;;5111607;28;20478;-76
2022/01/04 03:54:08;;;;;;;6.78;5.03;;;;;;;;;;5093501;28;20024;-76
2022/01/04 03:56:35;;;;;;;6.88;4.80;;;;;;;;;;5112348;28;20046;-76
2022/01/04 03:59:01;;;;;;;6.65;5.13;;;;;;;;;;5111706;28;20505;-76
2022/01/04 04:01:27;;;;;;;7.32;5.32;;;;;;;;;;5110143;28;20035;-76
2022/01/04 04:03:53;;;;;;;8.00;5.45;;;;;;;;;;5111958;28;20031;-76
2022/01/04 04:06:19;;;;;;;6.90;5.40;;;;;;;;;;5093559;28;20032;-76
2022/01/04 04:08:46;;;;;;;8.15;5.95;;;;;;;;;;5119502;27;20027;-76
2022/01/04 04:11:12;;;;;;;8.25;5.97;;;;;;;;;;5132086;27;20110;-76
2022/01/04 04:13:38;;;;;;;7.53;5.63;;;;;;;;;;5131828;28;20444;-76
2022/01/04 04:16:04;;;;;;;8.98;6.18;;;;;;;;;;5132138;28;20102;-76
2022/01/04 04:18:30;;;;;;;8.40;5.93;;;;;;;;;;5113655;28;20016;-76
2022/01/04 04:20:56;;;;;;;9.02;5.38;;;;;;;;;;5131973;28;20447;-76
2022/01/04 04:23:22;;;;;;;7.40;5.57;;;;;;;;;;5131815;28;20026;-76
2022/01/04 04:25:49;;;;;;;8.50;5.65;;;;;;;;;;5132170;28;20023;-76
2022/01/04 04:28:15;;;;;;;8.77;5.72;;;;;;;;;;5131989;28;20039;-76
2022/01/04 04:30:41;;;;;;;7.93;5.65;;;;;;;;;;5131906;28;20075;-76
2022/01/04 04:33:07;;;;;;;6.53;5.15;;;;;;;;;;5132429;28;20046;-76
2022/01/04 04:35:33;;;;;;;7.88;5.95;;;;;;;;;;5132389;28;20147;-76
2022/01/04 04:38:00;;;;;;;7.43;5.35;;;;;;;;;;5132090;28;20030;-76
2022/01/04 04:40:26;;;;;;;8.02;5.50;;;;;;;;;;5128180;28;20099;-76
2022/01/04 04:42:52;;;;;;;7.32;5.57;;;;;;;;;;5111552;28;20023;-76
2022/01/04 04:45:18;;;;;;;8.45;6.43;;;;;;;;;;5111324;28;20168;-76
2022/01/04 04:47:44;;;;;;;8.30;5.85;;;;;;;;;;5111531;28;20055;-76
2022/01/04 04:50:10;;;;;;;8.02;5.75;;;;;;;;;;5111140;28;20028;-76
2022/01/04 04:52:36;;;;;;;7.65;5.60;;;;;;;;;;5111161;28;20020;-76
2022/01/04 04:55:04;;;;;;;7.50;6.05;;;;;;;;;;5111150;28;20039;-76
2022/01/04 04:57:30;;;;;;;8.77;6.15;;;;;;;;;;5111697;28;20428;-76
2022/01/04 04:59:56;;;;;;;7.15;5.35;;;;;;;;;;5111506;28;20019;-76
2022/01/04 05:02:22;;;;;;;8.90;5.60;;;;;;;;;;5110718;28;20371;-76
2022/01/04 05:04:48;;;;;;;7.95;6.20;;;;;;;;;;5111206;28;20044;-76
2022/01/04 05:07:14;;;;;;;7.05;5.70;;;;;;;;;;5111102;28;20028;-76
2022/01/04 05:09:40;;;;;;;9.10;5.97;;;;;;;;;;5111699;28;20043;-76
2022/01/04 05:12:07;;;;;;;8.55;5.75;;;;;;;;;;5110580;28;20028;-76
2022/01/04 05:14:33;;;;;;;6.53;5.43;;;;;;;;;;5133214;27;20033;-76
2022/01/04 05:17:00;;;;;;;8.18;5.75;;;;;;;;;;5135443;27;20023;-76
2022/01/04 05:19:26;;;;;;;8.15;5.85;;;;;;;;;;5135383;27;20102;-76
2022/01/04 05:21:52;;;;;;;8.07;5.60;;;;;;;;;;5134816;27;20057;-76
2022/01/04 05:24:18;;;;;;;7.38;5.55;;;;;;;;;;5116772;27;20092;-76
2022/01/04 05:26:44;;;;;;;6.75;5.50;;;;;;;;;;5135335;27;20027;-76
2022/01/04 05:29:10;;;;;;;7.13;5.60;;;;;;;;;;5120080;27;20131;-76
2022/01/04 05:31:36;;;;;;;7.35;5.72;;;;;;;;;;5113775;28;20024;-76
2022/01/04 05:34:02;;;;;;;10.70;6.45;;;;;;;;;;5114349;28;20106;-76
2022/01/04 05:36:28;;;;;;;7.60;5.82;;;;;;;;;;5114458;28;20486;-76
2022/01/04 05:38:54;;;;;;;7.32;5.60;;;;;;;;;;5114749;28;20098;-76
2022/01/04 05:41:20;;;;;;;8.32;5.88;;;;;;;;;;5113824;28;20114;-76
2022/01/04 05:43:48;;;;;;;6.88;5.57;;;;;;;;;;5114290;28;20020;-76
2022/01/04 05:46:16;;;;;;;8.60;6.50;;;;;;;;;;5097253;28;20518;-76
2022/01/04 05:48:43;;;;;;;8.48;5.90;;;;;;;;;;5096117;28;20027;-76
2022/01/04 05:51:09;;;;;;;8.20;5.65;;;;;;;;;;5113860;28;20027;-76
2022/01/04 05:53:35;;;;;;;7.72;5.80;;;;;;;;;;5113877;28;20432;-76
2022/01/04 05:56:01;;;;;;;9.77;5.90;;;;;;;;;;5114125;28;20030;-76
2022/01/04 05:58:27;;;;;;;7.80;5.68;;;;;;;;;;5114012;28;20020;-76
2022/01/04 06:00:53;;;;;;;7.70;5.22;;;;;;;;;;5114052;28;20028;-76
2022/01/04 06:03:19;;;;;;;9.15;6.10;;;;;;;;;;5113810;28;20039;-76
2022/01/04 06:05:45;;;;;;;7.65;5.53;;;;;;;;;;5113849;28;20039;-76
2022/01/04 06:08:12;;;;;;;8.60;5.53;;;;;;;;;;5114151;28;20031;-76
2022/01/04 06:10:40;;;;;;;7.97;5.68;;;;;;;;;;5114119;28;20440;-76
2022/01/04 06:15:33;;;;;;;8.93;6.15;;;;;;;;;;5113318;28;20028;-76
2022/01/04 06:18:01;;;;;;;7.50;5.60;;;;;;;;;;5123785;27;20457;-76
2022/01/04 06:20:27;;;;;;;7.55;5.57;;;;;;;;;;5115549;27;20034;-76
2022/01/04 06:22:54;;;;;;;9.25;6.13;;;;;;;;;;5115340;27;20366;-76
2022/01/04 06:25:21;;;;;;;8.00;5.32;;;;;;;;;;5132722;27;20022;-76
2022/01/04 06:27:51;;;;;;;8.90;6.35;;;;;;;;;;5134056;27;20028;-76
2022/01/04 06:30:18;;;;;;;7.18;6.03;;;;;;;;;;5133773;27;20035;-76
2022/01/04 06:32:45;;;;;;;8.13;6.03;;;;;;;;;;5133512;27;20127;-76
2022/01/04 06:35:13;;;;;;;9.70;6.28;;;;;;;;;;5133694;27;20282;-76
2022/01/04 06:37:39;;;;;;;8.63;5.80;;;;;;;;;;5118991;27;20107;-76
2022/01/04 06:40:07;;;;;;;8.02;6.00;;;;;;;;;;5113159;28;20018;-76
2022/01/04 06:42:33;;;;;;;7.38;5.90;;;;;;;;;;5112823;28;20156;-76
2022/01/04 06:44:59;;;;;;;7.18;5.45;;;;;;;;;;5113487;28;20488;-76
2022/01/04 06:47:25;;;;;;;7.60;5.75;;;;;;;;;;5113268;28;20044;-76
2022/01/04 06:49:54;;;;;;;7.30;5.90;;;;;;;;;;5096852;28;20023;-76
2022/01/04 06:52:20;;;;;;;7.13;5.53;;;;;;;;;;5112277;28;20034;-76
2022/01/04 06:54:46;;;;;;;6.95;5.78;;;;;;;;;;5113023;28;20394;-76
2022/01/04 06:57:12;;;;;;;7.45;5.97;;;;;;;;;;5113143;28;20027;-76
2022/01/04 06:59:38;;;;;;;8.02;5.90;;;;;;;;;;5113296;28;20038;-76
2022/01/04 07:02:04;;;;;;;6.82;5.97;;;;;;;;;;5112278;28;20055;-76
2022/01/04 07:04:31;;;;;;;6.30;5.18;;;;;;;;;;5112709;28;20023;-76
2022/01/04 07:06:57;;;;;;;7.53;5.70;;;;;;;;;;5112876;28;20027;-76
2022/01/04 07:09:23;;;;;;;7.35;5.65;;;;;;;;;;5128689;27;20051;-76
2022/01/04 07:11:51;;;;;;;8.50;6.38;;;;;;;;;;5132627;27;20019;-76
2022/01/04 07:14:17;;;;;;;8.52;6.28;;;;;;;;;;5133216;27;20386;-76
2022/01/04 07:16:43;;;;;;;9.18;6.00;;;;;;;;;;5132985;27;20406;-76
2022/01/04 07:19:09;;;;;;;7.65;6.22;;;;;;;;;;5133078;27;20509;-76
2022/01/04 07:21:36;;;;;;;7.70;6.30;;;;;;;;;;5128278;27;20047;-76
2022/01/04 07:24:02;;;;;;;9.63;6.32;;;;;;;;;;5093727;28;20023;-76
2022/01/04 07:26:29;;;;;;;8.05;6.25;;;;;;;;;;5112241;28;20027;-76
2022/01/04 07:28:55;;;;;;;11.13;6.28;;;;;;;;;;5112351;27;20047;-76
2022/01/04 07:31:21;;;;;;;9.10;6.00;;;;;;;;;;5111439;28;20032;-76
2022/01/04 07:33:47;;;;;;;7.97;5.53;;;;;;;;;;5112353;28;20366;-76
2022/01/04 07:36:14;;;;;;;9.63;5.97;;;;;;;;;;5111712;28;20019;-76
2022/01/04 07:38:41;;;;;;;8.20;6.13;;;;;;;;;;5093924;28;20030;-76
2022/01/04 07:41:07;;;;;;;7.57;5.90;;;;;;;;;;5112284;28;20051;-76
2022/01/04 07:43:33;;;;;;;8.68;5.80;;;;;;;;;;5111290;28;20035;-76
2022/01/04 07:45:59;;;;;;;7.13;5.57;;;;;;;;;;5117514;27;20047;-76
2022/01/04 07:48:26;;;;;;;7.38;5.75;;;;;;;;;;5113942;27;20068;-76
2022/01/04 07:50:55;;;;;;;6.75;5.22;;;;;;;;;;5118661;27;20079;-76
2022/01/04 07:53:22;;;;;;;5.75;4.47;;;;;;;;;;5111585;28;20035;-76
2022/01/04 07:55:48;;;;;;;7.35;5.28;;;;;;;;;;5131987;27;20347;-76
2022/01/04 07:58:14;;;;;;;8.55;5.50;;;;;;;;;;5132728;27;20020;-76
2022/01/04 08:00:40;;;;;;;7.20;5.78;;;;;;;;;;5110409;28;20023;-74
2022/01/04 08:03:07;;;;;;;6.53;4.93;;;;;;;;;;5115283;27;20074;-75
2022/01/04 08:05:33;;;;;;;16.77;5.75;;;;;;;;;;5112851;27;20525;-76
2022/01/04 08:07:59;;;;;;;6.85;5.15;;;;;;;;;;5116958;27;20051;-76
2022/01/04 08:10:25;;;;;;;10.35;5.75;;;;;;;;;;5093373;28;20024;-75
2022/01/04 08:12:51;;;;;;;6.70;4.95;;;;;;;;;;5092570;28;20032;-77
2022/01/04 08:15:18;;;;;;;7.50;4.97;;;;;;;;;;5087923;28;20119;-78
2022/01/04 08:17:44;;;;;;;6.68;5.20;;;;;;;;;;5098525;28;20497;-75
2022/01/04 08:20:11;;;;;;;9.73;4.75;;;;;;;;;;5113446;28;20015;-75
2022/01/04 08:22:37;;;;;;;5.68;4.90;;;;;;;;;;5110854;28;20462;-75
2022/01/04 08:25:04;;;;;;;9.35;4.60;;;;;;;;;;5096363;28;20032;-76
2022/01/04 08:27:30;;;;;;;8.52;4.90;;;;;;;;;;5113861;28;20027;-79
2022/01/04 08:29:57;;;;;;;7.47;5.32;;;;;;;;;;5090552;28;20549;-73
2022/01/04 08:32:23;;;;;;;7.97;5.18;;;;;;;;;;5113917;28;20020;-74
2022/01/04 08:34:49;;;;;;;6.93;5.40;;;;;;;;;;5131447;28;20027;-75
2022/01/04 08:37:16;;;;;;;7.72;4.82;;;;;;;;;;5110255;28;20031;-75
2022/01/04 08:39:42;;;;;;;6.78;4.53;;;;;;;;;;5111015;28;20019;-74
2022/01/04 08:42:08;;;;;;;7.25;5.07;;;;;;;;;;5109827;28;20028;-75
2022/01/04 08:44:39;;;;;;;6.75;5.28;;;;;;;;;;5110889;28;20513;-75
2022/01/04 08:47:05;;;;;;;6.35;4.53;;;;;;;;;;5110110;28;20063;-76
2022/01/04 08:49:31;;;;;;;9.75;5.13;;;;;;;;;;5113744;28;20034;-75
2022/01/04 08:51:57;;;;;;;8.63;5.07;;;;;;;;;;5111812;28;20466;-76
2022/01/04 08:54:23;;;;;;;8.30;5.63;;;;;;;;;;5113530;28;20088;-75
2022/01/04 08:56:49;;;;;;;9.80;5.32;;;;;;;;;;5112805;27;20108;-74
2022/01/04 08:59:16;;;;;;;6.90;4.93;;;;;;;;;;5115290;27;20312;-74
2022/01/04 09:01:42;;;;;;;8.57;5.05;;;;;;;;;;5107619;28;20050;-73
2022/01/04 09:04:08;;;;;;;8.57;4.95;;;;;;;;;;5095720;28;20085;-73
2022/01/04 09:06:35;;;;;;;7.90;4.95;;;;;;;;;;5102089;28;20553;-75
2022/01/04 09:09:01;;;;;;;8.90;5.15;;;;;;;;;;5094090;27;20043;-74
2022/01/04 09:11:27;;;;;;;7.60;4.90;;;;;;;;;;5134254;27;20110;-74
2022/01/04 09:19:37;;;;;;;13.75;5.05;;;;;;;;;;5114036;28;20430;-74
2022/01/04 09:22:04;;;;;;;6.80;4.78;;;;;;;;;;5112783;28;20019;-77
2022/01/04 09:24:30;;;;;;;7.35;4.93;;;;;;;;;;5112961;28;20484;-77
2022/01/04 09:26:56;;;;;;;8.57;5.30;;;;;;;;;;5103512;28;20103;-77
2022/01/04 09:29:23;;;;;;;8.85;5.55;;;;;;;;;;5101931;28;20054;-75
2022/01/04 09:31:50;;;;;;;7.50;5.35;;;;;;;;;;5112049;28;20062;-74
2022/01/04 09:34:16;;;;;;;6.55;4.47;;;;;;;;;;5091470;28;20020;-74
2022/01/04 09:36:43;;;;;;;6.75;4.72;;;;;;;;;;5097123;28;20022;-74
2022/01/04 09:39:16;;;;;;;5.93;4.72;;;;;;;;;;5104037;28;20541;-74
2022/01/04 09:41:42;;;;;;;7.82;5.50;;;;;;;;;;5112287;27;20027;-75
2022/01/04 09:44:09;;;;;;;6.75;4.47;;;;;;;;;;5112466;28;20517;-75
2022/01/04 09:46:35;;;;;;;7.32;4.30;;;;;;;;;;5099973;28;20023;-75
2022/01/04 09:49:01;;;;;;;8.60;5.53;;;;;;;;;;5112707;28;20355;-75
2022/01/04 09:51:28;;;;;;;6.30;4.78;;;;;;;;;;5101434;28;20048;-75
2022/01/04 09:53:54;;;;;;;8.77;5.18;;;;;;;;;;5093762;28;20081;-74
2022/01/04 09:56:20;;;;;;;6.63;4.30;;;;;;;;;;5102061;28;20490;-75
2022/01/04 09:58:46;;;;;;;6.95;4.75;;;;;;;;;;5110631;28;20031;-75
2022/01/04 10:01:23;;;;;;;6.97;4.50;;;;;;;;;;5111195;27;20031;-75
2022/01/04 10:03:50;;;;;;;7.47;4.65;;;;;;;;;;5111029;27;20031;-75
2022/01/04 10:06:16;;;;;;;9.85;5.15;;;;;;;;;;5111943;28;20126;-75
2022/01/04 10:09:11;;;;;;;12.32;5.25;;;;;;;;;;5111782;27;20466;-74
2022/01/04 10:11:46;;;;;;;6.90;5.40;;;;;;;;;;5099020;28;20040;-75
2022/01/04 10:14:28;;;;;;;7.22;5.03;;;;;;;;;;5094584;28;20024;-75
2022/01/04 10:17:02;;;;;;;8.60;5.38;;;;;;;;;;5109729;28;20405;-75
2022/01/04 10:19:28;;;;;;;7.97;5.38;;;;;;;;;;5084731;28;20027;-75
2022/01/04 10:22:14;;;;;;;6.35;4.82;;;;;;;;;;5074940;28;20035;-75
2022/01/04 10:24:40;;;;;;;7.25;5.07;;;;;;;;;;5078182;28;20031;-77
2022/01/04 10:27:45;;;;;;;6.68;4.78;;;;;;;;;;5076819;28;20077;-75
2022/01/04 10:30:11;;;;;;;6.70;5.03;;;;;;;;;;5004182;28;20065;-76
2022/01/04 10:33:03;;;;;;;5.85;5.18;;;;;;;;;;4992686;28;20726;-76
2022/01/04 10:35:32;;;;;;;8.43;5.25;;;;;;;;;;5066652;27;20185;-76
2022/01/04 10:38:00;;;;;;;10.18;5.22;;;;;;;;;;5080163;27;20042;-76
2022/01/04 10:40:27;;;;;;;6.68;5.38;;;;;;;;;;5081895;28;20067;-74
2022/01/04 10:42:54;;;;;;;9.02;4.85;;;;;;;;;;5109980;27;20036;-77
2022/01/04 10:45:22;;;;;;;8.00;4.50;;;;;;;;;;5097667;28;20111;-76
2022/01/04 10:47:48;;;;;;;8.45;4.82;;;;;;;;;;5104148;28;20070;-77
2022/01/04 10:50:28;;;;;;;10.27;5.00;;;;;;;;;;5111963;28;20024;-76
2022/01/04 10:52:54;;;;;;;6.20;4.45;;;;;;;;;;5095173;28;20066;-78
2022/01/04 10:55:20;;;;;;;7.15;5.15;;;;;;;;;;5091608;28;20051;-75
2022/01/04 10:57:47;;;;;;;8.30;4.85;;;;;;;;;;5109170;28;20091;-75
2022/01/04 11:00:15;;;;;;;6.80;5.03;;;;;;;;;;5092441;28;20028;-77
2022/01/04 11:02:41;;;;;;;5.10;4.53;;;;;;;;;;5111760;28;20363;-78
2022/01/04 11:05:17;;;;;;;6.30;4.70;;;;;;;;;;5110806;28;20058;-78
2022/01/04 11:08:04;;;;;;;7.43;4.78;;;;;;;;;;5080151;28;20115;-76
2022/01/04 11:10:31;;;;;;;7.10;5.00;;;;;;;;;;5095512;28;20613;-76
2022/01/04 11:12:58;;;;;;;6.40;5.00;;;;;;;;;;5108467;28;20039;-75
2022/01/04 11:15:27;;;;;;;9.60;5.47;;;;;;;;;;5079555;28;20070;-75
2022/01/04 11:17:54;;;;;;;6.28;4.63;;;;;;;;;;5103261;28;20081;-75
2022/01/04 11:20:20;;;;;;;7.10;4.90;;;;;;;;;;5103568;28;20019;-74
2022/01/04 11:22:48;;;;;;;9.77;4.95;;;;;;;;;;5107974;28;20027;-76
2022/01/04 11:25:16;;;;;;;9.15;5.20;;;;;;;;;;5101811;28;20023;-76
2022/01/04 11:27:42;;;;;;;5.70;4.55;;;;;;;;;;5104357;28;20091;-77
2022/01/04 11:30:21;;;;;;;6.15;5.03;;;;;;;;;;5102420;28;20066;-75
2022/01/04 11:32:51;;;;;;;6.30;4.85;;;;;;;;;;5100120;28;20039;-76
2022/01/04 11:35:21;;;;;;;7.07;4.97;;;;;;;;;;5107000;28;20026;-76
2022/01/04 11:37:58;;;;;;;7.13;4.70;;;;;;;;;;5096309;27;20162;-75
2022/01/04 11:40:34;;;;;;;6.03;4.95;;;;;;;;;;5080873;28;20028;-76
2022/01/04 11:43:01;;;;;;;7.68;4.88;;;;;;;;;;5088333;28;20442;-77
2022/01/04 11:45:44;;;;;;;9.15;4.97;;;;;;;;;;5108088;27;20496;-76
2022/01/04 11:48:10;;;;;;;;;;;;;;;;;;5098399;28;20458;-76
2022/01/04 11:50:37;;;;;;;7.75;5.43;;;;;;;;;;5089801;28;19952;-75
2022/01/04 11:53:09;;;;;;;6.95;5.30;;;;;;;;;;5107043;28;20111;-76
2022/01/04 11:55:37;;;;;;;8.25;5.32;;;;;;;;;;5102350;27;20012;-76
2022/01/04 11:58:03;;;;;;;7.32;5.40;;;;;;;;;;5093229;28;20028;-76
2022/01/04 12:00:30;;;;;;;7.20;5.32;;;;;;;;;;5110652;28;20114;-75
2022/01/04 12:03:05;;;;;;;8.98;5.10;;;;;;;;;;5110914;27;20381;-75
2022/01/04 12:05:32;;;;;;;7.25;4.82;;;;;;;;;;5108999;28;20397;-76
2022/01/04 12:08:03;;;;;;;6.15;5.05;;;;;;;;;;5095534;27;20023;-76
2022/01/04 12:10:30;;;;;;;8.38;5.80;;;;;;;;;;5100581;28;20111;-75
2022/01/04 12:12:57;;;;;;;6.88;5.13;;;;;;;;;;5085219;28;20115;-75
2022/01/04 12:15:36;;;;;;;8.50;5.63;;;;;;;;;;5108895;28;20031;-74
2022/01/04 12:18:07;;;;;;;7.38;5.35;;;;;;;;;;5097519;28;20387;-74
2022/01/04 12:20:53;;;;;;;7.97;5.75;;;;;;;;;;5092035;28;20024;-75
2022/01/04 12:23:25;;;;;;;7.47;5.45;;;;;;;;;;5105772;28;20845;-74
2022/01/04 12:26:08;;;;;;;8.57;5.68;;;;;;;;;;5101373;28;20081;-78
2022/01/04 12:28:36;;;;;;;6.65;5.45;;;;;;;;;;5081916;28;20055;-77
2022/01/04 12:31:17;;;;;;;8.70;5.70;;;;;;;;;;5107530;28;20042;-77
2022/01/04 12:34:04;;;;;;;6.95;4.95;;;;;;;;;;5113831;28;20031;-75
2022/01/04 12:36:34;;;;;;;8.93;6.07;;;;;;;;;;5094529;28;20023;-75
2022/01/04 12:39:04;;;;;;;8.15;5.35;;;;;;;;;;5105706;28;20031;-74
2022/01/04 12:41:31;;;;;;;7.72;5.03;;;;;;;;;;5087107;28;20377;-73
2022/01/04 12:43:58;;;;;;;8.05;5.80;;;;;;;;;;5103732;27;20031;-74
2022/01/04 12:46:26;;;;;;;12.52;6.85;;;;;;;;;;5109903;27;20027;-74
2022/01/04 12:48:53;;;;;;;9.68;5.47;;;;;;;;;;5114610;28;20521;-75
2022/01/04 12:51:23;;;;;;;9.13;5.85;;;;;;;;;;5113131;28;20028;-75
2022/01/04 12:53:49;;;;;;;11.65;5.45;;;;;;;;;;5110470;27;20038;-74
2022/01/04 12:56:15;;;;;;;12.32;6.57;;;;;;;;;;5114815;28;20073;-74
2022/01/04 12:58:41;;;;;;;8.95;5.72;;;;;;;;;;5116371;27;20043;-75
2022/01/04 13:01:07;;;;;;;8.57;6.18;;;;;;;;;;5123749;27;20397;-73
2022/01/04 13:03:33;;;;;;;12.23;5.57;;;;;;;;;;5107741;28;20119;-74
2022/01/04 13:06:00;;;;;;;9.85;5.70;;;;;;;;;;5110313;28;20031;-75
2022/01/04 13:08:27;;;;;;;10.23;5.95;;;;;;;;;;5103478;28;20032;-74
2022/01/04 13:11:03;;;;;;;9.57;6.22;;;;;;;;;;5112706;27;20035;-75
2022/01/04 13:13:34;;;;;;;10.98;5.88;;;;;;;;;;5077827;28;20032;-75
2022/01/04 13:16:38;;;;;;;8.55;5.90;;;;;;;;;;5087583;27;20031;-74
2022/01/04 13:19:11;;;;;;;8.88;5.30;;;;;;;;;;5050146;28;20051;-74
2022/01/04 13:21:37;;;;;;;10.07;5.88;;;;;;;;;;5062950;28;20594;-74
2022/01/04 13:24:04;;;;;;;8.13;5.97;;;;;;;;;;5078100;28;20063;-75
2022/01/04 13:26:30;;;;;;;8.95;5.70;;;;;;;;;;5097121;28;20628;-74
2022/01/04 13:28:57;;;;;;;8.60;5.60;;;;;;;;;;5101322;28;20506;-74
2022/01/04 13:31:23;;;;;;;9.43;6.07;;;;;;;;;;5100308;28;20059;-74
2022/01/04 13:33:50;;;;;;;10.30;6.30;;;;;;;;;;5107743;28;20490;-74
2022/01/04 13:36:16;;;;;;;14.50;6.03;;;;;;;;;;5092324;28;20408;-74
2022/01/04 13:38:43;;;;;;;8.48;5.90;;;;;;;;;;5097419;28;20085;-74
2022/01/04 13:41:09;;;;;;;13.57;6.18;;;;;;;;;;5076618;28;20115;-77
2022/01/04 13:43:46;;;;;;;9.07;5.93;;;;;;;;;;5104038;28;20028;-75
2022/01/04 13:46:13;;;;;;;10.25;5.72;;;;;;;;;;5091177;28;20059;-76
2022/01/04 13:48:47;;;;;;;7.95;5.30;;;;;;;;;;5108838;28;20039;-75
2022/01/04 13:51:13;;;;;;;;;;;;;;;;;;5100333;28;20028;-77
2022/01/04 13:53:40;;;;;;;8.35;5.80;;;;;;;;;;5104673;28;19907;-74
2022/01/04 13:56:09;;;;;;;13.38;5.95;;;;;;;;;;5096775;28;20016;-74
2022/01/04 13:58:35;;;;;;;12.05;6.00;;;;;;;;;;5110166;28;20115;-75
2022/01/04 14:01:19;;;;;;;10.80;6.70;;;;;;;;;;5085229;28;20135;-73
2022/01/04 14:03:47;;;;;;;11.00;5.90;;;;;;;;;;5098815;28;20043;-77
2022/01/04 14:06:43;;;;;;;9.55;5.78;;;;;;;;;;5094595;28;20036;-76
2022/01/04 14:09:19;;;;;;;10.38;5.75;;;;;;;;;;5073319;28;20065;-77
2022/01/04 14:11:46;;;;;;;13.48;5.95;;;;;;;;;;5093684;28;20492;-77
2022/01/04 14:14:17;;;;;;;10.00;6.30;;;;;;;;;;5104384;28;20114;-77
2022/01/04 14:16:46;;;;;;;10.15;6.00;;;;;;;;;;5077646;28;20031;-76
2022/01/04 14:19:19;;;;;;;9.63;6.22;;;;;;;;;;5075532;28;20134;-76
2022/01/04 14:22:06;;;;;;;10.75;5.70;;;;;;;;;;5098132;27;20027;-76
2022/01/04 14:24:35;;;;;;;7.85;5.50;;;;;;;;;;5081878;28;20028;-75
2022/01/04 14:27:07;;;;;;;10.02;5.88;;;;;;;;;;5107908;28;20031;-75
2022/01/04 14:29:35;;;;;;;8.48;5.97;;;;;;;;;;5110154;27;20043;-74
2022/01/04 14:32:05;;;;;;;10.45;6.07;;;;;;;;;;5084124;28;20059;-74
2022/01/04 14:34:33;;;;;;;11.45;6.38;;;;;;;;;;5098446;28;20028;-77
2022/01/04 14:37:00;;;;;;;10.27;6.32;;;;;;;;;;5107601;28;20085;-75
2022/01/04 14:39:28;;;;;;;11.30;6.43;;;;;;;;;;5106852;27;20019;-76
2022/01/04 14:41:54;;;;;;;10.00;6.20;;;;;;;;;;5104393;28;20032;-74
2022/01/04 14:44:20;;;;;;;7.97;5.32;;;;;;;;;;5102027;28;20035;-77
2022/01/04 14:46:46;;;;;;;7.57;5.70;;;;;;;;;;5108073;28;20102;-78
2022/01/04 14:49:12;;;;;;;9.60;5.90;;;;;;;;;;5098439;28;20050;-78
2022/01/04 14:51:38;;;;;;;11.20;5.95;;;;;;;;;;5104947;28;20027;-75
2022/01/04 14:54:04;;;;;;;9.70;5.70;;;;;;;;;;5109454;28;20149;-76
2022/01/04 14:56:31;;;;;;;8.50;5.38;;;;;;;;;;5099663;28;20028;-76
2022/01/04 14:58:58;;;;;;;9.43;5.45;;;;;;;;;;5097576;28;20039;-76